createdAt,value
2024-04-30T00:00:28.881Z,829.00
2024-04-30T00:01:28.856Z,1001.00
2024-04-30T00:02:28.842Z,1163.00
2024-04-30T00:03:28.880Z,1229.00
2024-04-30T00:04:28.914Z,1090.00
2024-04-30T00:05:28.854Z,993.00
2024-04-30T00:06:28.811Z,913.00
2024-04-30T00:07:28.901Z,842.00
2024-04-30T00:08:28.798Z,777.00
2024-04-30T00:09:28.799Z,738.00
2024-04-30T00:10:28.891Z,693.00
2024-04-30T00:11:28.818Z,661.00
2024-04-30T00:12:28.801Z,655.00
2024-04-30T00:13:28.905Z,644.00
2024-04-30T00:14:28.817Z,634.00
2024-04-30T00:15:28.767Z,627.00
2024-04-30T00:16:28.825Z,620.00
2024-04-30T00:17:28.796Z,614.00
2024-04-30T00:18:28.759Z,608.00
2024-04-30T00:19:28.824Z,605.00
2024-04-30T00:20:28.769Z,601.00
2024-04-30T00:21:28.735Z,602.00
2024-04-30T00:22:28.790Z,600.00
2024-04-30T00:23:28.705Z,600.00
2024-04-30T00:24:28.693Z,604.00
2024-04-30T00:25:28.758Z,601.00
2024-04-30T00:26:28.673Z,600.00
2024-04-30T00:27:28.668Z,602.00
2024-04-30T00:28:28.740Z,603.00
2024-04-30T00:29:28.633Z,602.00
2024-04-30T00:30:28.627Z,602.00
2024-04-30T00:31:28.750Z,600.00
2024-04-30T00:32:28.680Z,601.00
2024-04-30T00:33:28.585Z,601.00
2024-04-30T00:34:28.586Z,601.00
2024-04-30T00:35:28.573Z,604.00
2024-04-30T00:36:28.544Z,601.00
2024-04-30T00:37:28.621Z,600.00
2024-04-30T00:38:28.504Z,601.00
2024-04-30T00:39:28.500Z,603.00
2024-04-30T00:40:28.516Z,602.00
2024-04-30T00:41:28.446Z,604.00
2024-04-30T00:42:28.423Z,602.00
2024-04-30T00:43:28.504Z,602.00
2024-04-30T00:44:28.402Z,606.00
2024-04-30T00:45:28.380Z,604.00
2024-04-30T00:46:28.434Z,606.00
2024-04-30T00:47:28.374Z,607.00
2024-04-30T00:48:28.433Z,602.00
2024-04-30T00:49:28.453Z,606.00
2024-04-30T00:50:28.381Z,607.00
2024-04-30T00:51:28.399Z,607.00
2024-04-30T00:52:28.512Z,606.00
2024-04-30T00:53:28.516Z,609.00
2024-04-30T00:54:28.577Z,606.00
2024-04-30T00:55:28.697Z,606.00
2024-04-30T00:56:28.606Z,607.00
2024-04-30T00:57:28.662Z,607.00
2024-04-30T00:58:28.841Z,607.00
2024-04-30T00:59:28.734Z,609.00
2024-04-30T01:00:28.861Z,609.00
2024-04-30T01:01:28.850Z,609.00
2024-04-30T01:02:28.842Z,608.00
2024-04-30T01:03:28.919Z,610.00
2024-04-30T01:04:28.966Z,608.00
2024-04-30T01:05:28.991Z,612.00
2024-04-30T01:06:29.039Z,611.00
2024-04-30T01:07:29.292Z,614.00
2024-04-30T01:08:29.139Z,610.00
2024-04-30T01:09:29.178Z,611.00
2024-04-30T01:10:29.260Z,607.00
2024-04-30T01:11:29.339Z,609.00
2024-04-30T01:12:29.387Z,608.00
2024-04-30T01:13:29.430Z,610.00
2024-04-30T01:14:29.415Z,612.00
2024-04-30T01:15:29.460Z,611.00
2024-04-30T01:16:29.583Z,609.00
2024-04-30T01:17:29.682Z,610.00
2024-04-30T01:18:29.613Z,610.00
2024-04-30T01:19:29.757Z,611.00
2024-04-30T01:20:29.719Z,610.00
2024-04-30T01:21:29.794Z,613.00
2024-04-30T01:22:29.951Z,614.00
2024-04-30T01:23:29.890Z,612.00
2024-04-30T01:24:29.961Z,608.00
2024-04-30T01:25:30.048Z,610.00
2024-04-30T01:26:30.074Z,610.00
2024-04-30T01:27:30.184Z,610.00
2024-04-30T01:28:30.325Z,610.00
2024-04-30T01:29:30.262Z,612.00
2024-04-30T01:30:30.439Z,610.00
2024-04-30T01:31:31.162Z,610.00
2024-04-30T01:32:30.540Z,611.00
2024-04-30T01:33:30.560Z,613.00
2024-04-30T01:34:30.688Z,610.00
2024-04-30T01:35:30.727Z,609.00
2024-04-30T01:36:30.683Z,610.00
2024-04-30T01:37:30.891Z,612.00
2024-04-30T01:38:30.744Z,610.00
2024-04-30T01:39:30.754Z,608.00
2024-04-30T01:40:30.853Z,609.00
2024-04-30T01:41:30.853Z,609.00
2024-04-30T01:42:30.911Z,609.00
2024-04-30T01:43:31.057Z,609.00
2024-04-30T01:44:30.952Z,611.00
2024-04-30T01:45:30.936Z,610.00
2024-04-30T01:46:31.082Z,610.00
2024-04-30T01:47:31.042Z,611.00
2024-04-30T01:48:31.268Z,609.00
2024-04-30T01:49:31.182Z,614.00
2024-04-30T01:50:31.157Z,608.00
2024-04-30T01:51:31.195Z,609.00
2024-04-30T01:52:31.323Z,609.00
2024-04-30T01:53:31.316Z,611.00
2024-04-30T01:54:31.394Z,611.00
2024-04-30T01:55:31.492Z,610.00
2024-04-30T01:56:31.467Z,610.00
2024-04-30T01:57:31.523Z,611.00
2024-04-30T01:58:31.671Z,610.00
2024-04-30T01:59:31.624Z,611.00
2024-04-30T02:00:31.683Z,611.00
2024-04-30T02:01:31.775Z,610.00
2024-04-30T02:02:31.808Z,609.00
2024-04-30T02:03:31.880Z,611.00
2024-04-30T02:04:38.762Z,609.00
2024-04-30T02:05:31.966Z,609.00
2024-04-30T02:06:31.900Z,610.00
2024-04-30T02:07:32.057Z,612.00
2024-04-30T02:08:31.856Z,612.00
2024-04-30T02:09:31.859Z,615.00
2024-04-30T02:10:31.881Z,614.00
2024-04-30T02:11:31.852Z,612.00
2024-04-30T02:12:31.832Z,612.00
2024-04-30T02:13:31.875Z,609.00
2024-04-30T02:14:31.815Z,608.00
2024-04-30T02:15:31.807Z,609.00
2024-04-30T02:16:31.875Z,611.00
2024-04-30T02:17:31.928Z,610.00
2024-04-30T02:18:31.806Z,610.00
2024-04-30T02:19:31.830Z,611.00
2024-04-30T02:20:31.793Z,609.00
2024-04-30T02:21:31.805Z,612.00
2024-04-30T02:22:31.886Z,610.00
2024-04-30T02:23:31.773Z,608.00
2024-04-30T02:24:31.756Z,610.00
2024-04-30T02:25:31.914Z,611.00
2024-04-30T02:26:31.772Z,608.00
2024-04-30T02:27:31.772Z,608.00
2024-04-30T02:28:31.780Z,609.00
2024-04-30T02:29:31.810Z,609.00
2024-04-30T02:30:31.846Z,609.00
2024-04-30T02:31:31.959Z,610.00
2024-04-30T02:32:31.999Z,608.00
2024-04-30T02:33:31.994Z,609.00
2024-04-30T02:34:32.102Z,612.00
2024-04-30T02:35:32.056Z,612.00
2024-04-30T02:36:32.126Z,612.00
2024-04-30T02:37:32.267Z,611.00
2024-04-30T02:38:32.227Z,610.00
2024-04-30T02:39:32.275Z,611.00
2024-04-30T02:40:32.430Z,611.00
2024-04-30T02:41:32.472Z,613.00
2024-04-30T02:42:32.471Z,611.00
2024-04-30T02:43:32.590Z,612.00
2024-04-30T02:44:32.546Z,610.00
2024-04-30T02:45:32.600Z,613.00
2024-04-30T02:46:32.732Z,612.00
2024-04-30T02:47:32.833Z,612.00
2024-04-30T02:48:32.778Z,613.00
2024-04-30T02:49:33.047Z,612.00
2024-04-30T02:50:32.896Z,611.00
2024-04-30T02:51:32.938Z,612.00
2024-04-30T02:52:33.060Z,612.00
2024-04-30T02:53:33.046Z,612.00
2024-04-30T02:54:33.114Z,608.00
2024-04-30T02:55:33.294Z,613.00
2024-04-30T02:56:33.192Z,611.00
2024-04-30T02:57:33.193Z,610.00
2024-04-30T02:58:33.297Z,615.00
2024-04-30T02:59:33.268Z,613.00
2024-04-30T03:00:33.340Z,612.00
2024-04-30T03:01:33.283Z,615.00
2024-04-30T03:02:33.358Z,613.00
2024-04-30T03:03:33.405Z,612.00
2024-04-30T03:04:33.432Z,612.00
2024-04-30T03:05:33.452Z,614.00
2024-04-30T03:06:33.491Z,612.00
2024-04-30T03:07:33.617Z,610.00
2024-04-30T03:08:33.571Z,613.00
2024-04-30T03:09:33.633Z,614.00
2024-04-30T03:10:33.824Z,610.00
2024-04-30T03:11:33.757Z,610.00
2024-04-30T03:12:33.772Z,609.00
2024-04-30T03:13:33.870Z,612.00
2024-04-30T03:14:33.912Z,609.00
2024-04-30T03:15:33.937Z,609.00
2024-04-30T03:16:33.959Z,609.00
2024-04-30T03:17:34.074Z,608.00
2024-04-30T03:18:34.070Z,609.00
2024-04-30T03:19:34.252Z,609.00
2024-04-30T03:20:34.200Z,607.00
2024-04-30T03:21:34.265Z,608.00
2024-04-30T03:22:34.373Z,609.00
2024-04-30T03:23:34.394Z,610.00
2024-04-30T03:24:34.455Z,609.00
2024-04-30T03:25:34.591Z,609.00
2024-04-30T03:26:34.569Z,609.00
2024-04-30T03:27:34.615Z,611.00
2024-04-30T03:28:34.711Z,614.00
2024-04-30T03:29:34.740Z,609.00
2024-04-30T03:30:34.766Z,616.00
2024-04-30T03:31:34.981Z,613.00
2024-04-30T03:32:34.937Z,612.00
2024-04-30T03:33:35.050Z,611.00
2024-04-30T03:34:35.073Z,614.00
2024-04-30T03:35:35.034Z,615.00
2024-04-30T03:36:35.111Z,616.00
2024-04-30T03:37:35.138Z,614.00
2024-04-30T03:38:35.112Z,615.00
2024-04-30T03:39:35.159Z,612.00
2024-04-30T03:40:35.209Z,613.00
2024-04-30T03:41:35.213Z,613.00
2024-04-30T03:42:35.251Z,613.00
2024-04-30T03:43:35.297Z,613.00
2024-04-30T03:44:35.418Z,612.00
2024-04-30T03:45:35.389Z,609.00
2024-04-30T03:46:35.486Z,609.00
2024-04-30T03:47:35.545Z,612.00
2024-04-30T03:48:35.517Z,611.00
2024-04-30T03:49:35.694Z,615.00
2024-04-30T03:50:35.613Z,616.00
2024-04-30T03:51:35.648Z,614.00
2024-04-30T03:52:35.735Z,613.00
2024-04-30T03:53:35.766Z,614.00
2024-04-30T03:54:35.799Z,617.00
2024-04-30T03:55:35.852Z,619.00
2024-04-30T03:56:35.912Z,621.00
2024-04-30T03:57:35.984Z,621.00
2024-04-30T03:58:36.118Z,625.00
2024-04-30T03:59:36.104Z,627.00
2024-04-30T04:00:36.168Z,627.00
2024-04-30T04:01:36.228Z,625.00
2024-04-30T04:02:36.279Z,625.00
2024-04-30T04:03:36.317Z,627.00
2024-04-30T04:04:36.347Z,628.00
2024-04-30T04:05:36.364Z,629.00
2024-04-30T04:06:36.453Z,633.00
2024-04-30T04:07:36.665Z,632.00
2024-04-30T04:08:36.506Z,630.00
2024-04-30T04:09:36.571Z,634.00
2024-04-30T04:10:36.655Z,636.00
2024-04-30T04:11:36.648Z,634.00
2024-04-30T04:12:36.653Z,634.00
2024-04-30T04:13:36.646Z,639.00
2024-04-30T04:14:36.687Z,637.00
2024-04-30T04:15:36.735Z,639.00
2024-04-30T04:16:36.875Z,636.00
2024-04-30T04:17:36.830Z,641.00
2024-04-30T04:18:36.896Z,639.00
2024-04-30T04:19:36.940Z,640.00
2024-04-30T04:20:36.852Z,639.00
2024-04-30T04:21:36.883Z,639.00
2024-04-30T04:22:36.958Z,640.00
2024-04-30T04:23:36.868Z,640.00
2024-04-30T04:24:36.942Z,643.00
2024-04-30T04:25:37.071Z,644.00
2024-04-30T04:26:36.991Z,641.00
2024-04-30T04:27:37.034Z,646.00
2024-04-30T04:28:37.114Z,642.00
2024-04-30T04:29:37.103Z,646.00
2024-04-30T04:30:37.159Z,647.00
2024-04-30T04:31:37.258Z,645.00
2024-04-30T04:32:37.283Z,644.00
2024-04-30T04:33:37.175Z,645.00
2024-04-30T04:34:37.238Z,647.00
2024-04-30T04:35:37.181Z,644.00
2024-04-30T04:36:44.365Z,600.00
2024-04-30T04:37:45.444Z,600.00
2024-04-30T04:38:45.382Z,600.00
2024-04-30T04:39:45.384Z,600.00
2024-04-30T04:40:45.459Z,600.00
2024-04-30T04:41:45.404Z,601.00
2024-04-30T04:42:45.403Z,600.00
2024-04-30T04:43:45.431Z,604.00
2024-04-30T04:44:45.417Z,602.00
2024-04-30T04:45:45.437Z,604.00
2024-04-30T04:46:45.410Z,601.00
2024-04-30T04:47:45.475Z,601.00
2024-04-30T04:48:45.428Z,604.00
2024-04-30T04:49:45.458Z,602.00
2024-04-30T04:50:45.466Z,604.00
2024-04-30T04:51:45.483Z,605.00
2024-04-30T04:52:45.489Z,609.00
2024-04-30T04:53:45.505Z,609.00
2024-04-30T04:54:45.505Z,610.00
2024-04-30T04:55:45.549Z,609.00
2024-04-30T04:56:45.530Z,609.00
2024-04-30T04:57:45.548Z,608.00
2024-04-30T04:58:45.530Z,607.00
2024-04-30T04:59:45.552Z,604.00
2024-04-30T05:00:45.673Z,604.00
2024-04-30T05:01:45.806Z,604.00
2024-04-30T05:02:45.692Z,607.00
2024-04-30T05:03:45.733Z,603.00
2024-04-30T05:04:46.039Z,605.00
2024-04-30T05:05:45.728Z,604.00
2024-04-30T05:06:45.802Z,602.00
2024-04-30T05:07:45.873Z,607.00
2024-04-30T05:08:45.904Z,605.00
2024-04-30T05:09:45.886Z,604.00
2024-04-30T05:10:45.914Z,605.00
2024-04-30T05:11:45.882Z,605.00
2024-04-30T05:12:45.926Z,605.00
2024-04-30T05:13:46.475Z,607.00
2024-04-30T05:14:46.045Z,608.00
2024-04-30T05:15:46.099Z,606.00
2024-04-30T05:16:46.282Z,609.00
2024-04-30T05:17:46.333Z,616.00
2024-04-30T05:18:46.242Z,616.00
2024-04-30T05:19:46.279Z,614.00
2024-04-30T05:20:46.319Z,614.00
2024-04-30T05:21:46.356Z,617.00
2024-04-30T05:22:46.392Z,615.00
2024-04-30T05:23:46.381Z,622.00
2024-04-30T05:24:46.437Z,620.00
2024-04-30T05:25:46.486Z,620.00
2024-04-30T05:26:46.442Z,630.00
2024-04-30T05:27:46.454Z,630.00
2024-04-30T05:28:46.478Z,633.00
2024-04-30T05:29:46.483Z,642.00
2024-04-30T05:30:46.556Z,648.00
2024-04-30T05:31:46.693Z,654.00
2024-04-30T05:32:46.670Z,660.00
2024-04-30T05:33:46.707Z,664.00
2024-04-30T05:34:46.787Z,685.00
2024-04-30T05:35:46.753Z,693.00
2024-04-30T05:36:46.792Z,718.00
2024-04-30T05:37:46.835Z,734.00
2024-04-30T05:38:46.846Z,754.00
2024-04-30T05:39:46.899Z,769.00
2024-04-30T05:40:46.993Z,787.00
2024-04-30T05:41:47.490Z,800.00
2024-04-30T05:42:47.078Z,821.00
2024-04-30T05:43:47.183Z,842.00
2024-04-30T05:44:47.168Z,861.00
2024-04-30T05:45:48.067Z,868.00
2024-04-30T05:46:47.295Z,897.00
2024-04-30T05:47:47.292Z,914.00
2024-04-30T05:48:47.320Z,936.00
2024-04-30T05:49:47.509Z,948.00
2024-04-30T05:50:47.498Z,956.00
2024-04-30T05:51:47.473Z,953.00
2024-04-30T05:52:48.111Z,957.00
2024-04-30T05:53:47.997Z,977.00
2024-04-30T05:54:47.696Z,986.00
2024-04-30T05:55:47.792Z,983.00
2024-04-30T05:56:47.761Z,973.00
2024-04-30T05:57:47.823Z,965.00
2024-04-30T05:58:47.993Z,985.00
2024-04-30T05:59:47.791Z,1008.00
2024-04-30T06:00:47.842Z,997.00
2024-04-30T06:01:47.898Z,998.00
2024-04-30T06:02:47.882Z,996.00
2024-04-30T06:03:48.179Z,994.00
2024-04-30T06:04:48.091Z,1021.00
2024-04-30T06:05:48.002Z,1040.00
2024-04-30T06:06:48.016Z,1074.00
2024-04-30T06:07:48.539Z,1090.00
2024-04-30T06:08:48.137Z,1118.00
2024-04-30T06:09:48.192Z,1148.00
2024-04-30T06:10:48.349Z,1175.00
2024-04-30T06:11:48.291Z,1205.00
2024-04-30T06:12:48.338Z,1239.00
2024-04-30T06:13:48.428Z,1275.00
2024-04-30T06:14:48.394Z,1328.00
2024-04-30T06:15:48.440Z,1283.00
2024-04-30T06:16:48.475Z,1362.00
2024-04-30T06:17:48.553Z,1402.00
2024-04-30T06:18:48.595Z,1440.00
2024-04-30T06:19:48.620Z,1462.00
2024-04-30T06:20:48.604Z,1483.00
2024-04-30T06:21:48.650Z,1487.00
2024-04-30T06:22:48.655Z,1502.00
2024-04-30T06:23:48.699Z,1503.00
2024-04-30T06:24:48.714Z,1509.00
2024-04-30T06:25:49.071Z,1517.00
2024-04-30T06:26:48.759Z,1514.00
2024-04-30T06:27:48.787Z,1521.00
2024-04-30T06:28:48.806Z,1525.00
2024-04-30T06:29:48.833Z,1520.00
2024-04-30T06:30:48.845Z,1484.00
2024-04-30T06:31:48.866Z,1444.00
2024-04-30T06:32:49.121Z,1417.00
2024-04-30T06:33:48.920Z,1383.00
2024-04-30T06:34:48.972Z,1361.00
2024-04-30T06:35:48.939Z,1331.00
2024-04-30T06:36:48.917Z,1306.00
2024-04-30T06:37:49.032Z,1281.00
2024-04-30T06:38:48.981Z,1260.00
2024-04-30T06:39:48.950Z,1233.00
2024-04-30T06:40:49.127Z,1204.00
2024-04-30T06:41:48.964Z,1178.00
2024-04-30T06:42:48.975Z,1153.00
2024-04-30T06:43:48.988Z,1135.00
2024-04-30T06:44:49.000Z,1114.00
2024-04-30T06:45:49.007Z,1102.00
2024-04-30T06:46:48.998Z,1087.00
2024-04-30T06:47:49.204Z,1075.00
2024-04-30T06:48:49.151Z,1081.00
2024-04-30T06:49:49.099Z,1085.00
2024-04-30T06:50:49.006Z,1095.00
2024-04-30T06:51:49.052Z,1101.00
2024-04-30T06:52:49.606Z,1113.00
2024-04-30T06:53:49.049Z,1129.00
2024-04-30T06:54:48.982Z,1146.00
2024-04-30T06:55:48.995Z,1161.00
2024-04-30T06:56:48.982Z,1167.00
2024-04-30T06:57:49.016Z,1186.00
2024-04-30T06:58:49.054Z,1170.00
2024-04-30T06:59:49.015Z,1171.00
2024-04-30T07:00:49.057Z,1152.00
2024-04-30T07:01:49.056Z,1139.00
2024-04-30T07:02:49.065Z,1118.00
2024-04-30T07:03:49.514Z,1114.00
2024-04-30T07:04:49.151Z,1102.00
2024-04-30T07:05:49.034Z,1101.00
2024-04-30T07:06:49.045Z,1093.00
2024-04-30T07:07:49.043Z,1087.00
2024-04-30T07:08:49.045Z,1080.00
2024-04-30T07:09:49.049Z,1079.00
2024-04-30T07:10:49.154Z,1072.00
2024-04-30T07:11:49.033Z,1075.00
2024-04-30T07:12:49.038Z,1084.00
2024-04-30T07:13:49.078Z,1079.00
2024-04-30T07:14:49.073Z,1103.00
2024-04-30T07:15:49.120Z,1109.00
2024-04-30T07:16:56.731Z,1117.00
2024-04-30T07:17:49.215Z,1118.00
2024-04-30T07:18:49.144Z,1123.00
2024-04-30T07:19:51.732Z,1136.00
2024-04-30T07:20:49.077Z,1120.00
2024-04-30T07:21:49.051Z,1129.00
2024-04-30T07:22:49.079Z,1144.00
2024-04-30T07:23:49.541Z,1169.00
2024-04-30T07:24:49.033Z,1205.00
2024-04-30T07:25:49.132Z,1210.00
2024-04-30T07:26:49.001Z,1229.00
2024-04-30T07:27:48.986Z,1219.00
2024-04-30T07:28:49.092Z,1232.00
2024-04-30T07:29:48.972Z,1252.00
2024-04-30T07:30:48.952Z,1260.00
2024-04-30T07:31:49.001Z,1280.00
2024-04-30T07:32:49.201Z,1293.00
2024-04-30T07:33:49.858Z,1310.00
2024-04-30T07:34:48.987Z,1318.00
2024-04-30T07:35:48.932Z,1320.00
2024-04-30T07:36:48.884Z,1320.00
2024-04-30T07:37:49.088Z,1309.00
2024-04-30T07:38:49.065Z,1288.00
2024-04-30T07:39:49.108Z,1294.00
2024-04-30T07:40:48.884Z,1291.00
2024-04-30T07:41:48.909Z,1285.00
2024-04-30T07:42:48.815Z,1271.00
2024-04-30T07:43:49.171Z,1269.00
2024-04-30T07:44:48.839Z,1268.00
2024-04-30T07:45:48.881Z,1268.00
2024-04-30T07:46:48.886Z,1269.00
2024-04-30T07:47:51.455Z,1280.00
2024-04-30T07:48:48.924Z,1280.00
2024-04-30T07:49:48.874Z,1282.00
2024-04-30T07:50:48.830Z,1281.00
2024-04-30T07:51:48.848Z,1274.00
2024-04-30T07:52:49.066Z,1265.00
2024-04-30T07:53:48.794Z,1248.00
2024-04-30T07:54:48.791Z,1242.00
2024-04-30T07:56:05.429Z,1239.00
2024-04-30T07:56:48.762Z,1240.00
2024-04-30T07:57:49.200Z,1221.00
2024-04-30T07:58:48.800Z,1187.00
2024-04-30T07:59:48.730Z,1148.00
2024-04-30T08:00:48.752Z,1115.00
2024-04-30T08:01:48.788Z,1079.00
2024-04-30T08:02:49.381Z,1038.00
2024-04-30T08:03:48.866Z,1007.00
2024-04-30T08:04:48.714Z,981.00
2024-04-30T08:06:47.677Z,919.00
2024-04-30T08:07:48.674Z,907.00
2024-04-30T08:08:49.058Z,887.00
2024-04-30T08:09:48.557Z,859.00
2024-04-30T08:10:48.737Z,840.00
2024-04-30T08:11:48.672Z,826.00
2024-04-30T08:12:48.558Z,786.00
2024-04-30T08:13:49.206Z,778.00
2024-04-30T08:14:48.522Z,782.00
2024-04-30T08:15:48.499Z,799.00
2024-04-30T08:16:48.637Z,804.00
2024-04-30T08:17:48.558Z,800.00
2024-04-30T08:18:48.456Z,793.00
2024-04-30T08:19:48.479Z,796.00
2024-04-30T08:20:48.433Z,812.00
2024-04-30T08:21:48.398Z,791.00
2024-04-30T08:22:48.463Z,804.00
2024-04-30T08:23:48.382Z,773.00
2024-04-30T08:24:49.427Z,782.00
2024-04-30T08:25:48.360Z,784.00
2024-04-30T08:26:48.332Z,797.00
2024-04-30T08:27:48.318Z,791.00
2024-04-30T08:28:48.307Z,796.00
2024-04-30T08:29:48.318Z,788.00
2024-04-30T08:30:48.299Z,799.00
2024-04-30T08:31:48.337Z,796.00
2024-04-30T08:32:48.373Z,783.00
2024-04-30T08:33:48.327Z,784.00
2024-04-30T08:34:48.257Z,799.00
2024-04-30T08:35:48.251Z,790.00
2024-04-30T08:36:48.254Z,802.00
2024-04-30T08:37:54.652Z,790.00
2024-04-30T08:38:48.241Z,790.00
2024-04-30T08:39:48.304Z,787.00
2024-04-30T08:40:48.266Z,772.00
2024-04-30T08:41:48.215Z,754.00
2024-04-30T08:42:48.156Z,745.00
2024-04-30T08:43:48.255Z,718.00
2024-04-30T08:44:48.565Z,700.00
2024-04-30T08:45:48.154Z,673.00
2024-04-30T08:46:48.166Z,662.00
2024-04-30T08:47:48.113Z,656.00
2024-04-30T08:48:48.086Z,652.00
2024-04-30T08:49:51.903Z,659.00
2024-04-30T08:50:48.098Z,660.00
2024-04-30T08:51:48.035Z,661.00
2024-04-30T08:52:48.060Z,662.00
2024-04-30T08:53:48.033Z,651.00
2024-04-30T08:54:48.091Z,647.00
2024-04-30T08:55:48.048Z,649.00
2024-04-30T08:56:47.973Z,652.00
2024-04-30T08:57:47.955Z,655.00
2024-04-30T08:58:47.978Z,651.00
2024-04-30T08:59:47.949Z,657.00
2024-04-30T09:00:47.955Z,664.00
2024-04-30T09:01:48.008Z,664.00
2024-04-30T09:02:51.252Z,662.00
2024-04-30T09:03:47.958Z,662.00
2024-04-30T09:04:48.039Z,665.00
2024-04-30T09:05:47.905Z,675.00
2024-04-30T09:06:47.885Z,689.00
2024-04-30T09:07:47.915Z,704.00
2024-04-30T09:08:49.379Z,721.00
2024-04-30T09:09:48.117Z,714.00
2024-04-30T09:10:48.156Z,720.00
2024-04-30T09:11:48.251Z,693.00
2024-04-30T09:12:48.066Z,673.00
2024-04-30T09:13:48.169Z,660.00
2024-04-30T09:14:48.577Z,653.00
2024-04-30T09:15:48.120Z,655.00
2024-04-30T09:16:48.221Z,654.00
2024-04-30T09:17:48.225Z,659.00
2024-04-30T09:18:48.127Z,657.00
2024-04-30T09:19:48.183Z,666.00
2024-04-30T09:20:48.138Z,661.00
2024-04-30T09:21:48.351Z,663.00
2024-04-30T09:22:48.241Z,673.00
2024-04-30T09:23:48.214Z,681.00
2024-04-30T09:24:48.573Z,688.00
2024-04-30T09:25:48.292Z,689.00
2024-04-30T09:26:48.581Z,708.00
2024-04-30T09:27:48.283Z,726.00
2024-04-30T09:28:48.414Z,721.00
2024-04-30T09:29:48.344Z,738.00
2024-04-30T09:30:48.616Z,753.00
2024-04-30T09:31:48.506Z,772.00
2024-04-30T09:32:48.520Z,781.00
2024-04-30T09:33:48.548Z,823.00
2024-04-30T09:34:48.622Z,858.00
2024-04-30T09:35:49.105Z,870.00
2024-04-30T09:36:48.612Z,891.00
2024-04-30T09:37:48.704Z,898.00
2024-04-30T09:38:48.684Z,900.00
2024-04-30T09:39:49.611Z,925.00
2024-04-30T09:40:48.702Z,946.00
2024-04-30T09:41:48.710Z,956.00
2024-04-30T09:42:48.717Z,974.00
2024-04-30T09:43:48.891Z,1007.00
2024-04-30T09:44:48.758Z,1022.00
2024-04-30T09:45:48.763Z,1049.00
2024-04-30T09:46:48.858Z,1067.00
2024-04-30T09:47:48.776Z,1097.00
2024-04-30T09:48:48.750Z,1120.00
2024-04-30T09:49:48.988Z,1148.00
2024-04-30T09:50:49.090Z,1181.00
2024-04-30T09:51:48.734Z,1210.00
2024-04-30T09:52:48.766Z,1226.00
2024-04-30T09:53:49.110Z,1234.00
2024-04-30T09:54:48.671Z,1260.00
2024-04-30T09:55:48.746Z,1268.00
2024-04-30T09:56:48.703Z,1269.00
2024-04-30T09:57:48.658Z,1287.00
2024-04-30T09:58:48.702Z,1294.00
2024-04-30T09:59:48.718Z,1298.00
2024-04-30T10:00:48.627Z,1312.00
2024-04-30T10:01:48.693Z,1323.00
2024-04-30T10:02:48.787Z,1323.00
2024-04-30T10:03:48.714Z,1328.00
2024-04-30T10:04:48.858Z,1337.00
2024-04-30T10:05:48.888Z,1338.00
2024-04-30T10:06:52.171Z,1395.00
2024-04-30T10:07:48.867Z,1396.00
2024-04-30T10:08:48.817Z,1390.00
2024-04-30T10:09:49.101Z,1359.00
2024-04-30T10:10:48.886Z,1352.00
2024-04-30T10:11:48.771Z,1343.00
2024-04-30T10:12:48.703Z,1350.00
2024-04-30T10:13:48.716Z,1320.00
2024-04-30T10:14:48.751Z,1318.00
2024-04-30T10:15:48.631Z,1298.00
2024-04-30T10:16:48.690Z,1294.00
2024-04-30T10:17:48.658Z,1285.00
2024-04-30T10:18:48.569Z,1267.00
2024-04-30T10:19:48.585Z,1272.00
2024-04-30T10:20:48.560Z,1274.00
2024-04-30T10:21:48.634Z,1267.00
2024-04-30T10:22:48.628Z,1289.00
2024-04-30T10:23:48.619Z,1306.00
2024-04-30T10:24:48.644Z,1321.00
2024-04-30T10:25:49.698Z,1336.00
2024-04-30T10:26:49.119Z,1311.00
2024-04-30T10:27:48.749Z,1273.00
2024-04-30T10:28:48.865Z,1240.00
2024-04-30T10:29:48.921Z,1214.00
2024-04-30T10:30:48.827Z,1174.00
2024-04-30T10:31:49.588Z,1113.00
2024-04-30T10:32:48.970Z,1070.00
2024-04-30T10:33:49.014Z,1025.00
2024-04-30T10:34:48.996Z,984.00
2024-04-30T10:35:49.001Z,948.00
2024-04-30T10:36:49.155Z,916.00
2024-04-30T10:37:49.083Z,894.00
2024-04-30T10:38:49.113Z,865.00
2024-04-30T10:39:49.152Z,888.00
2024-04-30T10:40:49.232Z,876.00
2024-04-30T10:41:49.258Z,864.00
2024-04-30T10:42:49.273Z,886.00
2024-04-30T10:43:49.324Z,885.00
2024-04-30T10:44:49.344Z,882.00
2024-04-30T10:45:49.372Z,889.00
2024-04-30T10:46:49.459Z,902.00
2024-04-30T10:47:49.653Z,918.00
2024-04-30T10:48:49.492Z,920.00
2024-04-30T10:49:52.767Z,918.00
2024-04-30T10:50:49.531Z,919.00
2024-04-30T10:51:49.488Z,924.00
2024-04-30T10:52:49.454Z,935.00
2024-04-30T10:53:49.442Z,964.00
2024-04-30T10:54:49.397Z,1016.00
2024-04-30T10:55:49.430Z,1063.00
2024-04-30T10:56:49.332Z,1108.00
2024-04-30T10:57:49.680Z,1147.00
2024-04-30T10:58:49.306Z,1178.00
2024-04-30T10:59:49.264Z,1167.00
2024-04-30T11:00:49.305Z,1161.00
2024-04-30T11:01:49.237Z,1139.00
2024-04-30T11:02:50.717Z,1104.00
2024-04-30T11:03:49.125Z,1104.00
2024-04-30T11:04:49.131Z,1087.00
2024-04-30T11:05:49.051Z,1073.00
2024-04-30T11:06:49.095Z,1078.00
2024-04-30T11:07:48.998Z,1064.00
2024-04-30T11:08:48.947Z,1064.00
2024-04-30T11:09:48.936Z,1089.00
2024-04-30T11:10:49.117Z,1134.00
2024-04-30T11:11:49.854Z,1154.00
2024-04-30T11:12:49.130Z,1186.00
2024-04-30T11:13:48.981Z,1205.00
2024-04-30T11:14:48.899Z,1207.00
2024-04-30T11:15:56.686Z,1216.00
2024-04-30T11:16:48.967Z,1217.00
2024-04-30T11:17:48.937Z,1218.00
2024-04-30T11:18:48.936Z,1215.00
2024-04-30T11:19:48.945Z,1202.00
2024-04-30T11:20:48.808Z,1182.00
2024-04-30T11:21:48.801Z,1162.00
2024-04-30T11:22:48.854Z,1146.00
2024-04-30T11:23:48.747Z,1122.00
2024-04-30T11:24:48.709Z,1111.00
2024-04-30T11:25:48.746Z,1096.00
2024-04-30T11:26:50.812Z,1078.00
2024-04-30T11:27:48.701Z,1078.00
2024-04-30T11:29:03.670Z,1063.00
2024-04-30T11:29:48.710Z,1078.00
2024-04-30T11:30:48.588Z,1076.00
2024-04-30T11:31:48.550Z,1033.00
2024-04-30T11:32:48.623Z,1038.00
2024-04-30T11:33:48.705Z,1024.00
2024-04-30T11:34:48.504Z,1020.00
2024-04-30T11:35:48.444Z,1001.00
2024-04-30T11:36:48.422Z,995.00
2024-04-30T11:37:48.438Z,988.00
2024-04-30T11:38:48.409Z,980.00
2024-04-30T11:39:48.312Z,972.00
2024-04-30T11:40:48.324Z,964.00
2024-04-30T11:41:56.951Z,954.00
2024-04-30T11:42:48.721Z,955.00
2024-04-30T11:43:48.642Z,954.00
2024-04-30T11:44:48.798Z,951.00
2024-04-30T11:45:48.629Z,937.00
2024-04-30T11:46:48.642Z,922.00
2024-04-30T11:47:48.237Z,898.00
2024-04-30T11:48:48.158Z,898.00
2024-04-30T11:49:48.125Z,887.00
2024-04-30T11:50:48.157Z,882.00
2024-04-30T11:51:48.053Z,873.00
2024-04-30T11:52:48.074Z,868.00
2024-04-30T11:53:48.029Z,865.00
2024-04-30T11:54:48.008Z,856.00
2024-04-30T11:55:48.046Z,852.00
2024-04-30T11:56:47.942Z,836.00
2024-04-30T11:57:47.923Z,845.00
2024-04-30T11:58:47.890Z,833.00
2024-04-30T11:59:47.932Z,827.00
2024-04-30T12:00:48.001Z,839.00
2024-04-30T12:01:47.983Z,853.00
2024-04-30T12:02:48.063Z,870.00
2024-04-30T12:03:47.992Z,880.00
2024-04-30T12:04:48.226Z,892.00
2024-04-30T12:05:48.039Z,909.00
2024-04-30T12:06:47.974Z,917.00
2024-04-30T12:07:48.182Z,925.00
2024-04-30T12:08:47.957Z,949.00
2024-04-30T12:09:47.936Z,948.00
2024-04-30T12:10:48.047Z,974.00
2024-04-30T12:11:47.949Z,972.00
2024-04-30T12:12:47.890Z,993.00
2024-04-30T12:13:48.140Z,1001.00
2024-04-30T12:14:47.867Z,1002.00
2024-04-30T12:15:48.164Z,1015.00
2024-04-30T12:16:48.613Z,1029.00
2024-04-30T12:17:47.939Z,1034.00
2024-04-30T12:18:47.816Z,1030.00
2024-04-30T12:19:47.852Z,1046.00
2024-04-30T12:20:48.158Z,1063.00
2024-04-30T12:21:47.767Z,1061.00
2024-04-30T12:22:47.800Z,1039.00